.
WxDataArchive / Data Records for 2014-11-10
2014-11-09 November 2014 2014-11-11

Data Records for Monday, 10 November 2014

Time	Temp	Chill	HIndex	Humid	Dewpt	 Wind 	HiWind	WindDir	Rain 	Barom
-----	----	-----	------	-----	-----	------	------	-------	-----	-----
00:00	43.9	43.9	43.9	61	31.3	0	1	248	0.00	29.865 
00:05	43.9	43.9	43.9	62	31.7	0	1	248	0.00	29.865 
00:10	43.9	43.9	43.9	62	31.7	0	1	248	0.00	29.865 
00:15	43.9	43.9	43.9	62	31.7	0	1	248	0.00	29.862 
00:20	43.9	43.9	43.9	62	31.7	0	1	248	0.00	29.862 
00:25	43.9	43.9	43.9	62	31.7	0	0	---	0.00	29.862 
00:30	43.9	43.9	43.9	62	31.7	0	1	248	0.00	29.862 
00:35	44.1	44.1	44.1	62	31.9	0	1	248	0.00	29.862 
00:40	44.1	44.1	44.1	62	31.9	0	1	248	0.00	29.862 
00:45	44.1	44.1	44.1	62	31.9	0	1	248	0.00	29.860 
00:50	44.1	44.1	44.1	62	31.9	0	1	248	0.00	29.860 
00:55	44.1	44.1	44.1	62	31.9	0	1	248	0.00	29.860 
01:00	44.1	44.1	44.1	62	31.9	0	1	248	0.00	29.860 
01:05	44.1	44.1	44.1	62	31.9	0	1	248	0.00	29.860 
01:10	43.9	43.9	43.9	63	32.1	0	1	248	0.00	29.860 
01:15	43.9	43.9	43.9	63	32.1	0	0	---	0.00	29.862 
01:20	43.9	43.9	43.9	63	32.1	0	1	248	0.00	29.862 
01:25	43.9	43.9	43.9	64	32.5	0	1	248	0.00	29.862 
01:30	43.8	43.8	43.8	64	32.4	0	1	248	0.00	29.861 
01:35	43.8	43.8	43.8	64	32.4	0	0	---	0.00	29.861 
01:40	43.8	43.8	43.8	64	32.4	0	1	248	0.00	29.861 
01:45	43.8	43.8	43.8	64	32.4	0	1	248	0.00	29.863 
01:50	43.8	43.8	43.8	64	32.4	0	0	---	0.00	29.863 
01:55	43.8	43.8	43.8	64	32.4	0	0	---	0.00	29.863 
02:00	43.8	43.8	43.8	64	32.4	0	0	---	0.00	29.862 
02:05	43.8	43.8	43.8	65	32.8	0	0	---	0.00	29.862 
02:10	43.8	43.8	43.8	65	32.8	0	1	248	0.00	29.862 
02:15	43.8	43.8	43.8	65	32.8	0	0	---	0.00	29.873 
02:20	43.8	43.8	43.8	65	32.8	0	0	---	0.00	29.873 
02:25	43.8	43.8	43.8	65	32.8	0	2	248	0.00	29.873 
02:30	43.8	43.8	43.8	65	32.8	0	1	248	0.00	29.867 
02:35	43.8	43.8	43.8	65	32.8	0	0	---	0.00	29.867 
02:40	43.8	43.8	43.8	65	32.8	0	1	248	0.00	29.867 
02:45	43.8	43.8	43.8	65	32.8	0	0	---	0.00	29.866 
02:50	43.8	43.8	43.8	65	32.8	0	0	---	0.00	29.866 
02:55	43.9	43.9	43.9	65	32.9	0	0	---	0.00	29.866 
03:00	43.9	43.9	43.9	65	32.9	0	1	248	0.00	29.875 
03:05	43.9	43.9	43.9	65	32.9	0	1	248	0.00	29.875 
03:10	43.9	43.9	43.9	65	32.9	0	0	---	0.00	29.875 
03:15	43.9	43.9	43.9	65	32.9	0	0	---	0.00	29.876 
03:20	43.9	43.9	43.9	65	32.9	0	1	248	0.00	29.876 
03:25	43.9	43.9	43.9	65	32.9	0	0	---	0.00	29.876 
03:30	43.9	43.9	43.9	66	33.3	0	0	---	0.00	29.877 
03:35	43.9	43.9	43.9	66	33.3	0	0	---	0.00	29.877 
03:40	43.8	43.8	43.8	66	33.2	0	0	---	0.00	29.877 
03:45	43.8	43.8	43.8	66	33.2	0	0	---	0.00	29.882 
03:50	43.6	43.6	43.6	67	33.4	0	1	248	0.00	29.882 
03:55	43.6	43.6	43.6	67	33.4	0	0	---	0.00	29.882 
04:00	43.5	43.5	43.5	67	33.3	0	0	---	0.00	29.885 
04:05	43.5	43.5	43.5	67	33.3	0	1	248	0.00	29.885 
04:10	43.3	43.3	43.3	68	33.5	0	0	---	0.00	29.885 
04:15	43.2	43.2	43.2	68	33.4	0	0	---	0.00	29.888 
04:20	43.2	43.2	43.2	68	33.4	0	0	---	0.00	29.888 
04:25	43.1	43.1	43.1	69	33.6	0	0	---	0.00	29.888 
04:30	42.9	42.9	42.9	69	33.4	0	0	---	0.00	29.886 
04:35	42.9	42.9	42.9	69	33.4	0	1	248	0.00	29.886 
04:40	42.8	42.8	42.8	70	33.7	0	0	---	0.00	29.886 
04:45	42.8	42.8	42.8	70	33.7	0	0	---	0.00	29.883 
04:50	42.8	42.8	42.8	70	33.7	0	1	248	0.00	29.883 
04:55	42.8	42.8	42.8	70	33.7	0	0	---	0.00	29.883 
05:00	42.8	42.8	42.8	70	33.7	0	0	---	0.00	29.889 
05:05	42.6	42.6	42.6	70	33.5	0	0	---	0.00	29.889 
05:10	42.6	42.6	42.6	70	33.5	0	0	---	0.00	29.889 
05:15	42.6	42.6	42.6	71	33.9	0	0	---	0.00	29.890 
05:20	42.6	42.6	42.6	71	33.9	0	0	---	0.00	29.890 
05:25	42.6	42.6	42.6	70	33.5	0	0	---	0.00	29.890 
05:30	42.6	42.6	42.6	70	33.5	0	1	248	0.00	29.887 
05:35	42.8	42.8	42.8	70	33.7	0	1	248	0.00	29.887 
05:40	42.9	42.9	42.9	70	33.8	0	1	248	0.00	29.887 
05:45	42.9	42.9	42.9	70	33.8	0	0	---	0.00	29.883 
05:50	42.9	42.9	42.9	70	33.8	0	1	248	0.00	29.883 
05:55	42.9	42.9	42.9	71	34.2	0	0	---	0.00	29.883 
06:00	42.8	42.8	42.8	71	34.1	0	0	---	0.00	29.890 
06:05	42.8	42.8	42.8	71	34.1	0	1	248	0.00	29.890 
06:10	42.6	42.6	42.6	71	33.9	0	1	248	0.00	29.890 
06:15	42.8	42.8	42.8	71	34.1	0	1	248	0.00	29.893 
06:20	42.8	42.8	42.8	71	34.1	0	0	---	0.00	29.893 
06:25	42.6	42.6	42.6	72	34.2	0	1	248	0.00	29.893 
06:30	42.5	42.5	42.5	73	34.5	0	1	248	0.00	29.888 
06:35	42.3	42.3	42.3	73	34.3	0	0	---	0.00	29.888 
06:40	42.2	42.2	42.2	73	34.2	0	0	---	0.00	29.888 
06:45	42.1	42.1	42.1	74	34.4	0	0	---	0.00	29.890 
06:50	41.9	41.9	41.9	74	34.2	0	0	---	0.00	29.890 
06:55	41.8	41.8	41.8	74	34.1	0	0	---	0.00	29.890 
07:00	41.6	41.6	41.6	74	33.9	0	0	---	0.00	29.894 
07:05	41.3	41.3	41.3	75	34.0	0	0	---	0.00	29.894 
07:10	41.2	41.2	41.2	76	34.2	0	1	248	0.00	29.894 
07:15	41.2	41.2	41.2	76	34.2	0	1	248	0.00	29.881 
07:20	41.3	41.3	41.3	76	34.3	0	1	248	0.00	29.881 
07:25	41.5	41.5	41.5	75	34.2	0	1	248	0.00	29.881 
07:30	41.9	41.9	41.9	74	34.2	0	1	248	0.00	29.875 
07:35	42.2	42.2	42.2	74	34.5	0	1	248	0.00	29.875 
07:40	42.3	42.3	42.3	73	34.3	0	1	248	0.00	29.875 
07:45	42.5	42.5	42.5	73	34.5	0	1	248	0.00	29.880 
07:50	42.5	42.5	42.5	73	34.5	0	1	248	0.00	29.880 
07:55	42.6	42.6	42.6	73	34.6	0	1	248	0.00	29.880 
08:00	42.8	42.8	42.8	73	34.8	0	0	---	0.00	29.890 
08:05	42.8	42.8	42.8	73	34.8	0	2	248	0.00	29.890 
08:10	43.1	43.1	43.1	72	34.7	0	3	112	0.00	29.890 
08:15	43.2	43.2	43.2	72	34.8	0	2	112	0.00	29.883 
08:20	43.5	43.5	43.5	71	34.7	0	2	112	0.00	29.883 
08:25	43.6	43.6	43.6	71	34.8	0	2	112	0.00	29.883 
08:30	43.9	43.9	43.9	70	34.8	0	2	112	0.00	29.884 
08:35	44.3	44.3	44.3	69	34.8	0	1	112	0.00	29.884 
08:40	44.6	44.6	44.6	68	34.7	0	2	112	0.00	29.884 
08:45	45.1	45.1	45.1	68	35.2	0	2	112	0.00	29.894 
08:50	45.4	45.4	45.4	68	35.5	0	2	68	0.00	29.894 
08:55	45.7	45.7	45.7	67	35.4	0	1	68	0.00	29.894 
09:00	46.1	46.1	46.1	66	35.4	0	1	68	0.00	29.898 
09:05	46.4	46.4	46.4	65	35.3	0	2	68	0.00	29.898 
09:10	46.7	46.7	46.7	64	35.2	0	2	68	0.00	29.898 
09:15	47.0	47.0	47.0	64	35.5	1	6	68	0.00	29.889 
09:20	47.1	47.1	47.1	64	35.6	0	2	112	0.00	29.889 
09:25	47.3	47.3	47.3	64	35.7	0	2	135	0.00	29.889 
09:30	47.6	47.6	47.6	63	35.6	1	4	112	0.00	29.879 
09:35	47.9	47.9	47.9	63	35.9	1	3	90	0.00	29.879 
09:40	48.2	48.2	48.2	62	35.8	0	1	315	0.00	29.879 
09:45	48.6	48.6	48.6	62	36.2	0	2	315	0.00	29.882 
09:50	49.1	49.1	49.1	61	36.2	1	6	90	0.00	29.882 
09:55	49.4	49.4	49.4	61	36.5	0	4	90	0.00	29.882 
10:00	49.6	49.6	49.6	61	36.7	0	5	68	0.00	29.883 
10:05	49.8	49.8	49.8	61	36.9	0	3	68	0.00	29.883 
10:10	50.1	50.1	50.1	61	37.2	0	2	68	0.00	29.883 
10:15	50.5	50.5	50.5	61	37.6	1	5	248	0.00	29.877 
10:20	50.8	50.8	50.8	59	37.0	1	4	112	0.00	29.877 
10:25	51.0	51.0	51.0	61	38.0	1	4	248	0.00	29.877 
10:30	51.6	51.6	51.6	60	38.2	1	2	248	0.00	29.873 
10:35	52.0	52.0	52.0	59	38.1	1	5	90	0.00	29.873 
10:40	52.2	52.2	52.2	58	37.9	1	4	270	0.00	29.873 
10:45	52.5	52.5	52.5	59	38.6	1	4	68	0.00	29.867 
10:50	52.8	52.8	52.8	58	38.4	2	5	90	0.00	29.867 
10:55	52.9	52.9	52.9	58	38.5	1	3	90	0.00	29.867 
11:00	53.1	53.1	53.1	58	38.7	1	3	112	0.00	29.864 
11:05	53.2	53.2	53.2	58	38.8	1	6	158	0.00	29.864 
11:10	53.3	53.3	53.3	59	39.3	1	4	22	0.00	29.864 
11:15	53.8	53.8	53.8	59	39.8	1	6	90	0.00	29.859 
11:20	54.4	54.4	54.4	58	39.9	1	3	90	0.00	29.859 
11:25	54.7	54.7	54.7	56	39.3	1	3	270	0.00	29.859 
11:30	54.8	54.8	54.8	56	39.4	0	3	292	0.00	29.850 
11:35	55.1	55.1	55.1	56	39.7	1	3	292	0.00	29.850 
11:40	55.4	55.4	55.4	56	40.0	1	4	68	0.00	29.850 
11:45	55.6	55.6	55.6	54	39.2	2	6	90	0.00	29.846 
11:50	55.7	55.7	55.7	54	39.3	1	5	90	0.00	29.846 
11:55	56.0	56.0	56.0	54	39.6	1	6	90	0.00	29.846 
12:00	56.3	56.3	56.3	54	39.9	2	6	90	0.00	29.843 
12:05	56.2	56.2	56.2	53	39.3	1	5	292	0.00	29.843 
12:10	56.0	56.0	56.0	52	38.6	1	4	248	0.00	29.843 
12:15	56.0	56.0	56.0	53	39.1	2	5	90	0.00	29.829 
12:20	55.9	55.9	55.9	51	38.0	2	7	68	0.00	29.829 
12:25	55.9	55.9	55.9	51	38.0	1	5	90	0.00	29.829 
12:30	55.9	55.9	55.9	50	37.5	1	6	90	0.00	29.819 
12:35	56.0	56.0	56.0	50	37.6	2	5	90	0.00	29.819 
12:40	56.2	56.2	56.2	49	37.3	2	5	68	0.00	29.819 
12:45	56.3	56.3	56.3	52	38.9	1	3	68	0.00	29.810 
12:50	56.6	56.6	56.6	50	38.2	1	5	68	0.00	29.810 
12:55	56.9	56.9	56.9	47	36.9	2	6	90	0.00	29.810 
13:00	57.0	57.0	57.0	46	36.4	3	7	90	0.00	29.800 
13:05	56.9	56.9	56.9	46	36.3	3	7	90	0.00	29.800 
13:10	57.0	57.0	57.0	45	35.9	3	12	90	0.00	29.800 
13:15	57.2	57.2	57.2	44	35.5	2	10	90	0.00	29.787 
13:20	57.2	57.2	57.2	43	34.9	3	11	90	0.00	29.787 
13:25	57.2	57.2	57.2	43	34.9	2	7	90	0.00	29.787 
13:30	57.2	57.2	57.2	43	34.9	2	7	90	0.00	29.774 
13:35	57.5	57.5	57.5	43	35.2	2	6	68	0.00	29.774 
13:40	57.5	57.5	57.5	42	34.6	2	6	68	0.00	29.774 
13:45	57.6	57.6	57.6	42	34.7	2	5	22	0.00	29.766 
13:50	58.1	58.1	58.1	42	35.1	2	4	90	0.00	29.766 
13:55	58.3	58.3	58.3	42	35.3	2	6	90	0.00	29.766 
14:00	58.3	58.3	58.3	39	33.5	3	10	90	0.00	29.748 
14:05	58.1	58.1	58.1	42	35.1	2	6	68	0.00	29.748 
14:10	58.0	58.0	58.0	43	35.6	2	6	90	0.00	29.748 
14:15	57.8	57.8	57.8	43	35.5	1	5	68	0.00	29.743 
14:20	57.8	57.8	57.8	45	36.6	2	9	90	0.00	29.743 
14:25	58.3	58.3	58.3	45	37.1	1	10	68	0.00	29.743 
14:30	58.7	58.7	58.7	41	35.1	2	11	90	0.00	29.733 
14:35	58.9	58.9	58.9	42	35.9	2	7	112	0.00	29.733 
14:40	58.9	58.9	58.9	42	35.9	2	6	90	0.00	29.733 
14:45	59.2	59.2	59.2	43	36.7	1	4	22	0.00	29.733 
14:50	59.0	59.0	59.0	42	35.9	2	6	112	0.00	29.733 
14:55	58.9	58.9	58.9	42	35.9	2	11	90	0.00	29.733 
15:00	58.9	58.9	58.9	42	35.9	2	5	90	0.00	29.724 
15:05	59.2	59.2	59.2	43	36.7	1	6	68	0.00	29.724 
15:10	59.2	59.2	59.2	43	36.7	1	4	68	0.00	29.724 
15:15	59.0	59.0	59.0	41	35.3	2	7	90	0.00	29.722 
15:20	58.9	58.9	58.9	41	35.2	2	7	90	0.00	29.722 
15:25	58.7	58.7	58.7	42	35.7	2	9	90	0.00	29.722 
15:30	58.9	58.9	58.9	41	35.2	2	9	90	0.00	29.717 
15:35	58.9	58.9	58.9	39	34.0	3	10	90	0.00	29.717 
15:40	58.9	58.9	58.9	39	34.0	2	9	90	0.00	29.717 
15:45	58.9	58.9	58.9	40	34.6	2	6	90	0.00	29.718 
15:50	59.2	59.2	59.2	39	34.3	2	7	112	0.00	29.718 
15:55	59.3	59.3	59.3	39	34.3	2	6	90	0.00	29.718 
16:00	59.3	59.3	59.3	38	33.7	2	5	90	0.00	29.708 
16:05	59.5	59.5	59.5	39	34.5	2	6	90	0.00	29.708 
16:10	59.5	59.5	59.5	39	34.5	1	5	90	0.00	29.708 
16:15	59.3	59.3	59.3	40	35.0	2	5	90	0.00	29.704 
16:20	59.3	59.3	59.3	39	34.3	2	9	68	0.00	29.704 
16:25	59.2	59.2	59.2	39	34.3	2	7	68	0.00	29.704 
16:30	59.0	59.0	59.0	40	34.7	2	6	112	0.00	29.698 
16:35	58.9	58.9	58.9	40	34.6	1	4	68	0.00	29.698 
16:40	58.7	58.7	58.7	40	34.4	1	4	112	0.00	29.698 
16:45	58.7	58.7	58.7	40	34.4	1	3	112	0.00	29.694 
16:50	58.6	58.6	58.6	39	33.7	2	6	90	0.00	29.694 
16:55	58.4	58.4	58.4	39	33.5	1	4	90	0.00	29.694 
17:00	58.3	58.3	58.3	39	33.5	1	3	90	0.00	29.692 
17:05	58.1	58.1	58.1	40	33.9	0	3	90	0.00	29.692 
17:10	57.8	57.8	57.8	40	33.6	1	3	90	0.00	29.692 
17:15	57.6	57.6	57.6	40	33.5	1	3	90	0.00	29.696 
17:20	57.3	57.3	57.3	41	33.8	0	3	90	0.00	29.696 
17:25	57.0	57.0	57.0	41	33.5	1	4	90	0.00	29.696 
17:30	56.7	56.7	56.7	41	33.3	1	3	90	0.00	29.693 
17:35	56.6	56.6	56.6	41	33.2	0	2	90	0.00	29.693 
17:40	56.3	56.3	56.3	42	33.5	1	3	90	0.00	29.693 
17:45	56.0	56.0	56.0	42	33.2	0	2	90	0.00	29.695 
17:50	55.7	55.7	55.7	42	33.0	1	4	90	0.00	29.695 
17:55	55.6	55.6	55.6	43	33.5	0	3	90	0.00	29.695 
18:00	55.3	55.3	55.3	43	33.2	1	4	90	0.00	29.694 
18:05	55.1	55.1	55.1	43	33.0	1	2	90	0.00	29.694 
18:10	55.0	55.0	55.0	43	32.9	1	2	90	0.00	29.694 
18:15	54.8	54.8	54.8	44	33.3	0	2	90	0.00	29.695 
18:20	54.5	54.5	54.5	44	33.0	0	2	90	0.00	29.695 
18:25	54.4	54.4	54.4	44	32.9	1	3	90	0.00	29.695 
18:30	54.2	54.2	54.2	44	32.8	1	5	90	0.00	29.694 
18:35	54.1	54.1	54.1	44	32.7	1	3	90	0.00	29.694 
18:40	54.1	54.1	54.1	44	32.7	0	2	90	0.00	29.694 
18:45	53.9	53.9	53.9	44	32.5	0	4	90	0.00	29.696 
18:50	53.8	53.8	53.8	44	32.4	1	4	90	0.00	29.696 
18:55	53.6	53.6	53.6	44	32.2	0	2	90	0.00	29.696 
19:00	53.5	53.5	53.5	44	32.1	1	3	90	0.00	29.697 
19:05	53.3	53.3	53.3	45	32.5	0	2	90	0.00	29.697 
19:10	53.2	53.2	53.2	45	32.4	0	2	90	0.00	29.697 
19:15	53.1	53.1	53.1	45	32.3	0	2	90	0.00	29.702 
19:20	52.9	52.9	52.9	46	32.7	0	3	90	0.00	29.702 
19:25	52.8	52.8	52.8	46	32.6	0	2	90	0.00	29.702 
19:30	52.6	52.6	52.6	46	32.4	0	2	90	0.00	29.710 
19:35	52.6	52.6	52.6	46	32.4	0	2	90	0.00	29.710 
19:40	52.6	52.6	52.6	46	32.4	0	2	90	0.00	29.710 
19:45	52.6	52.6	52.6	46	32.4	0	2	90	0.00	29.709 
19:50	52.5	52.5	52.5	46	32.3	1	2	90	0.00	29.709 
19:55	52.3	52.3	52.3	46	32.1	0	3	90	0.00	29.709 
20:00	52.2	52.2	52.2	46	32.1	1	3	90	0.00	29.711 
20:05	52.0	52.0	52.0	47	32.4	1	3	90	0.00	29.711 
20:10	51.7	51.7	51.7	48	32.6	0	2	112	0.00	29.711 
20:15	51.6	51.6	51.6	48	32.6	0	2	112	0.00	29.705 
20:20	51.3	51.3	51.3	49	32.8	0	2	112	0.00	29.705 
20:25	51.0	51.0	51.0	49	32.5	0	2	112	0.00	29.705 
20:30	50.7	50.7	50.7	50	32.7	0	1	112	0.00	29.708 
20:35	50.4	50.4	50.4	50	32.5	0	1	112	0.00	29.708 
20:40	50.2	50.2	50.2	50	32.3	0	3	112	0.00	29.708 
20:45	49.9	49.9	49.9	51	32.5	0	1	112	0.00	29.710 
20:50	49.8	49.8	49.8	51	32.4	0	2	112	0.00	29.710 
20:55	49.8	49.8	49.8	51	32.4	0	2	112	0.00	29.710 
21:00	49.6	49.6	49.6	51	32.2	0	2	112	0.00	29.709 
21:05	49.4	49.4	49.4	52	32.5	0	2	112	0.00	29.709 
21:10	49.2	49.2	49.2	52	32.3	0	1	112	0.00	29.709 
21:15	48.9	48.9	48.9	53	32.5	0	1	112	0.00	29.707 
21:20	48.6	48.6	48.6	54	32.7	0	1	112	0.00	29.707 
21:25	48.5	48.5	48.5	54	32.6	0	1	112	0.00	29.707 
21:30	48.3	48.3	48.3	54	32.4	0	1	112	0.00	29.708 
21:35	48.2	48.2	48.2	54	32.3	0	1	112	0.00	29.708 
21:40	48.0	48.0	48.0	55	32.6	0	1	112	0.00	29.708 
21:45	47.7	47.7	47.7	55	32.3	0	2	112	0.00	29.707 
21:50	47.7	47.7	47.7	55	32.3	0	2	112	0.00	29.707 
21:55	47.7	47.7	47.7	55	32.3	0	1	112	0.00	29.707 
22:00	47.7	47.7	47.7	55	32.3	0	2	112	0.00	29.709 
22:05	47.6	47.6	47.6	55	32.2	0	1	112	0.00	29.709 
22:10	47.6	47.6	47.6	55	32.2	0	1	112	0.00	29.709 
22:15	47.6	47.6	47.6	55	32.2	0	1	112	0.00	29.700 
22:20	47.6	47.6	47.6	55	32.2	0	1	112	0.00	29.700 
22:25	47.6	47.6	47.6	56	32.7	0	1	112	0.00	29.700 
22:30	47.6	47.6	47.6	56	32.7	0	1	112	0.00	29.695 
22:35	47.6	47.6	47.6	55	32.2	0	1	112	0.00	29.695 
22:40	47.4	47.4	47.4	56	32.5	0	1	112	0.00	29.695 
22:45	47.4	47.4	47.4	55	32.1	0	1	112	0.00	29.693 
22:50	47.4	47.4	47.4	55	32.1	0	1	112	0.00	29.693 
22:55	47.3	47.3	47.3	55	32.0	0	2	112	0.00	29.693 
23:00	47.3	47.3	47.3	55	32.0	0	1	112	0.00	29.694 
23:05	47.3	47.3	47.3	55	32.0	0	0	---	0.00	29.694 
23:10	47.1	47.1	47.1	55	31.8	0	0	---	0.00	29.694 
23:15	47.1	47.1	47.1	55	31.8	0	1	112	0.00	29.692 
23:20	47.3	47.3	47.3	55	32.0	0	1	112	0.00	29.692 
23:25	47.4	47.4	47.4	54	31.6	0	2	112	0.00	29.692 
23:30	47.7	47.7	47.7	54	31.9	0	1	112	0.00	29.688 
23:35	47.9	47.9	47.9	54	32.1	0	1	112	0.00	29.688 
23:40	48.2	48.2	48.2	53	31.9	1	3	112	0.00	29.688 
23:45	48.6	48.6	48.6	52	31.8	0	2	112	0.00	29.689 
23:50	48.8	48.8	48.8	52	32.0	0	2	112	0.00	29.689 
23:55	48.8	48.8	48.8	52	32.0	0	2	112	0.00	29.689 

CoCoRaHS
IN-AL-39
A2 Web Hosting
Creative Commons License
GoDaddy
search engine by freefind advanced

loaded 2018-11-13 02:00:18 • last modified 2010-11-18 10:43:29
Privacy PolicyDisclaimer
• wx.awcolley.com is powered by PmWiki v.2002016 •
• all content (unless otherwise noted) © 2018 A W Colley